createdAt,value
2023-03-18T00:00:41.234Z,19.42
2023-03-18T00:03:08.682Z,17.75
2023-03-18T00:05:36.048Z,15.68
2023-03-18T00:08:04.592Z,16.10
2023-03-18T00:10:33.516Z,16.88
2023-03-18T00:13:01.266Z,18.00
2023-03-18T00:15:28.808Z,16.45
2023-03-18T00:17:55.913Z,17.83
2023-03-18T00:20:38.249Z,15.60
2023-03-18T00:23:06.572Z,15.90
2023-03-18T00:25:33.651Z,14.60
2023-03-18T00:28:00.728Z,18.10
2023-03-18T00:30:27.850Z,13.65
2023-03-18T00:32:56.168Z,16.25
2023-03-18T00:35:23.561Z,16.77
2023-03-18T00:37:50.582Z,19.40
2023-03-18T00:40:20.405Z,20.23
2023-03-18T00:42:47.848Z,13.20
2023-03-18T00:45:16.112Z,13.45
2023-03-18T00:47:43.668Z,13.30
2023-03-18T00:50:11.068Z,18.58
2023-03-18T00:52:38.137Z,16.52
2023-03-18T00:55:06.742Z,13.40
2023-03-18T00:57:33.892Z,12.27
2023-03-18T01:00:01.177Z,12.40
2023-03-18T01:02:29.541Z,14.30
2023-03-18T01:04:57.993Z,9.73
2023-03-18T01:07:25.295Z,12.13
2023-03-18T01:09:52.706Z,14.85
2023-03-18T01:12:19.738Z,15.45
2023-03-18T01:14:46.974Z,13.25
2023-03-18T01:17:14.455Z,20.10
2023-03-18T01:19:42.322Z,15.88
2023-03-18T01:22:09.516Z,22.75
2023-03-18T01:24:36.586Z,15.40
2023-03-18T01:27:03.888Z,15.18
2023-03-18T01:29:30.988Z,17.95
2023-03-18T01:31:58.103Z,17.85
2023-03-18T01:34:25.192Z,20.08
2023-03-18T01:36:52.431Z,17.63
2023-03-18T01:39:19.471Z,19.40
2023-03-18T01:41:46.650Z,18.17
2023-03-18T01:44:19.182Z,20.50
2023-03-18T01:46:46.559Z,21.60
2023-03-18T01:49:32.615Z,21.27
2023-03-18T01:52:00.971Z,24.00
2023-03-18T01:54:28.342Z,19.98
2023-03-18T01:56:55.374Z,20.75
2023-03-18T01:59:23.229Z,19.10
2023-03-18T02:01:53.129Z,18.05
2023-03-18T02:04:21.336Z,23.50
2023-03-18T02:06:48.470Z,18.40
2023-03-18T02:09:16.158Z,22.67
2023-03-18T02:11:43.847Z,21.73
2023-03-18T02:14:11.775Z,19.20
2023-03-18T02:16:45.200Z,22.27
2023-03-18T02:19:20.320Z,25.20
2023-03-18T02:22:04.687Z,20.38
2023-03-18T02:24:34.758Z,26.25
2023-03-18T02:27:03.528Z,24.52
2023-03-18T02:29:31.674Z,25.73
2023-03-18T02:31:59.248Z,22.00
2023-03-18T02:34:26.636Z,19.75
2023-03-18T02:36:53.759Z,20.38
2023-03-18T02:39:22.150Z,19.85
2023-03-18T02:41:49.348Z,20.20
2023-03-18T02:44:16.507Z,20.90
2023-03-18T02:47:02.914Z,22.63
2023-03-18T02:49:30.032Z,26.70
2023-03-18T02:51:57.082Z,21.05
2023-03-18T02:54:28.107Z,25.90
2023-03-18T02:56:55.317Z,27.63
2023-03-18T02:59:22.468Z,25.33
2023-03-18T03:01:50.553Z,24.65
2023-03-18T03:04:17.731Z,24.10
2023-03-18T03:06:44.991Z,24.80
2023-03-18T03:09:13.490Z,28.55
2023-03-18T03:11:40.891Z,22.70
2023-03-18T03:14:09.388Z,23.55
2023-03-18T03:16:37.759Z,26.55
2023-03-18T03:19:05.882Z,23.35
2023-03-18T03:21:33.461Z,22.45
2023-03-18T03:24:00.526Z,24.48
2023-03-18T03:26:27.640Z,27.52
2023-03-18T03:28:54.753Z,24.88
2023-03-18T03:31:21.948Z,24.17
2023-03-18T03:33:49.035Z,27.90
2023-03-18T03:36:16.979Z,28.92
2023-03-18T03:38:44.117Z,30.45
2023-03-18T03:41:11.640Z,28.08
2023-03-18T03:43:39.334Z,26.60
2023-03-18T03:46:06.914Z,25.50
2023-03-18T03:48:34.138Z,23.70
2023-03-18T03:51:01.256Z,21.80
2023-03-18T03:53:28.954Z,21.23
2023-03-18T03:55:58.991Z,26.63
2023-03-18T03:58:26.346Z,30.70
2023-03-18T04:00:53.663Z,25.77
2023-03-18T04:03:20.794Z,22.15
2023-03-18T04:05:47.882Z,29.88
2023-03-18T04:08:14.978Z,25.60
2023-03-18T04:10:42.695Z,23.88
2023-03-18T04:13:10.226Z,24.88
2023-03-18T04:15:37.630Z,26.83
2023-03-18T04:18:07.049Z,28.67
2023-03-18T04:20:35.311Z,26.48
2023-03-18T04:23:02.651Z,24.70
2023-03-18T04:25:30.089Z,28.30
2023-03-18T04:27:57.525Z,27.90
2023-03-18T04:30:25.543Z,26.00
2023-03-18T04:32:52.794Z,23.92
2023-03-18T04:35:20.997Z,26.85
2023-03-18T04:37:48.734Z,27.42
2023-03-18T04:40:15.871Z,30.65
2023-03-18T04:42:43.132Z,25.90
2023-03-18T04:45:10.326Z,25.83
2023-03-18T04:47:38.255Z,23.05
2023-03-18T04:50:05.591Z,25.23
2023-03-18T04:52:33.623Z,24.92
2023-03-18T04:55:01.632Z,26.45
2023-03-18T04:57:28.868Z,21.88
2023-03-18T04:59:56.574Z,22.60
2023-03-18T05:02:24.120Z,21.52
2023-03-18T05:04:51.168Z,28.63
2023-03-18T05:07:18.241Z,21.38
2023-03-18T05:09:45.375Z,24.33
2023-03-18T05:12:15.882Z,24.33
2023-03-18T05:17:15.620Z,24.88
2023-03-18T05:19:46.457Z,23.45
2023-03-18T05:22:13.840Z,24.25
2023-03-18T05:24:41.700Z,28.33
2023-03-18T05:27:08.835Z,23.13
2023-03-18T05:29:35.946Z,24.35
2023-03-18T05:32:04.304Z,23.48
2023-03-18T05:34:31.416Z,22.85
2023-03-18T05:36:58.563Z,23.15
2023-03-18T05:39:25.630Z,29.40
2023-03-18T05:41:52.724Z,22.77
2023-03-18T05:44:19.814Z,26.80
2023-03-18T05:46:46.866Z,23.33
2023-03-18T05:49:13.989Z,20.42
2023-03-18T05:51:41.044Z,24.65
2023-03-18T05:54:09.327Z,28.27
2023-03-18T05:56:36.394Z,23.75
2023-03-18T05:59:03.473Z,20.42
2023-03-18T06:01:31.516Z,29.45
2023-03-18T06:03:59.129Z,25.20
2023-03-18T06:06:26.310Z,26.08
2023-03-18T06:08:53.521Z,18.90
2023-03-18T06:11:20.599Z,21.75
2023-03-18T06:13:47.659Z,24.17
2023-03-18T06:16:15.289Z,21.23
2023-03-18T06:18:42.397Z,23.45
2023-03-18T06:21:10.003Z,19.48
2023-03-18T06:23:37.650Z,19.33
2023-03-18T06:26:04.842Z,23.88
2023-03-18T06:28:31.888Z,20.00
2023-03-18T06:30:59.056Z,21.08
2023-03-18T06:33:26.217Z,24.00
2023-03-18T06:35:54.681Z,25.20
2023-03-18T06:38:21.855Z,19.83
2023-03-18T06:40:48.948Z,21.77
2023-03-18T06:43:16.037Z,24.15
2023-03-18T06:45:43.144Z,19.05
2023-03-18T06:48:10.471Z,21.80
2023-03-18T06:50:39.831Z,21.67
2023-03-18T06:55:08.354Z,19.65
2023-03-18T06:57:35.676Z,19.17
2023-03-18T07:00:04.545Z,18.85
2023-03-18T07:02:32.005Z,17.90
2023-03-18T07:05:00.214Z,17.10
2023-03-18T07:07:28.004Z,16.73
2023-03-18T07:09:55.066Z,14.45
2023-03-18T07:12:22.131Z,16.27
2023-03-18T07:14:49.241Z,14.38
2023-03-18T07:17:16.592Z,13.95
2023-03-18T07:19:43.641Z,18.75
2023-03-18T07:22:11.430Z,14.77
2023-03-18T07:24:38.941Z,16.85
2023-03-18T07:27:06.864Z,18.48
2023-03-18T07:29:33.909Z,19.73
2023-03-18T07:32:01.868Z,13.93
2023-03-18T07:34:29.176Z,15.48
2023-03-18T07:36:56.465Z,16.17
2023-03-18T07:39:23.525Z,15.95
2023-03-18T07:41:51.580Z,14.77
2023-03-18T07:44:18.738Z,16.40
2023-03-18T07:46:45.868Z,11.63
2023-03-18T07:49:12.989Z,15.45
2023-03-18T07:51:40.097Z,13.57
2023-03-18T07:54:07.139Z,14.25
2023-03-18T07:56:34.688Z,11.13
2023-03-18T07:59:01.847Z,13.60
2023-03-18T08:01:28.955Z,11.02
2023-03-18T08:03:56.066Z,11.70
2023-03-18T08:06:23.892Z,10.98
2023-03-18T08:08:50.938Z,15.55
2023-03-18T08:11:17.953Z,12.82
2023-03-18T08:13:45.072Z,11.10
2023-03-18T08:16:12.246Z,10.68
2023-03-18T08:18:39.338Z,13.75
2023-03-18T08:21:07.780Z,13.07
2023-03-18T08:23:34.904Z,13.40
2023-03-18T08:26:02.685Z,9.45
2023-03-18T08:28:29.736Z,11.27
2023-03-18T08:30:57.186Z,13.90
2023-03-18T08:33:27.528Z,8.70
2023-03-18T08:38:21.705Z,11.35
2023-03-18T08:40:48.848Z,13.38
2023-03-18T08:43:15.918Z,11.75
2023-03-18T08:45:43.345Z,13.43
2023-03-18T08:48:10.595Z,7.32
2023-03-18T08:50:37.701Z,9.38
2023-03-18T08:53:05.681Z,12.23
2023-03-18T08:55:39.870Z,16.38
2023-03-18T08:58:07.451Z,9.32
2023-03-18T09:00:34.970Z,7.72
2023-03-18T09:03:02.565Z,11.75
2023-03-18T09:05:30.482Z,10.02
2023-03-18T09:07:58.777Z,8.45
2023-03-18T09:10:26.251Z,11.50
2023-03-18T09:12:53.381Z,8.63
2023-03-18T09:15:20.797Z,7.00
2023-03-18T09:18:03.760Z,12.25
2023-03-18T09:20:35.513Z,9.88
2023-03-18T09:23:02.746Z,9.43
2023-03-18T09:25:30.255Z,9.25
2023-03-18T09:27:57.539Z,10.15
2023-03-18T09:30:26.436Z,11.13
2023-03-18T09:32:53.992Z,10.10
2023-03-18T09:35:21.097Z,10.63
2023-03-18T09:37:48.314Z,9.82
2023-03-18T09:40:38.806Z,9.02
2023-03-18T09:43:10.409Z,11.23
2023-03-18T09:45:41.143Z,8.43
2023-03-18T09:48:13.557Z,8.27
2023-03-18T09:50:47.887Z,6.22
2023-03-18T09:53:24.800Z,5.50
2023-03-18T09:55:56.058Z,8.73
2023-03-18T09:58:28.281Z,7.50
2023-03-18T10:00:57.020Z,6.40
2023-03-18T10:03:32.501Z,11.75
2023-03-18T10:06:02.326Z,7.65
2023-03-18T10:08:41.620Z,7.18
2023-03-18T10:11:12.307Z,15.27
2023-03-18T10:13:39.948Z,13.35
2023-03-18T10:16:07.269Z,9.32
2023-03-18T10:18:34.758Z,12.18
2023-03-18T10:21:07.035Z,11.38
2023-03-18T10:23:46.798Z,11.10
2023-03-18T10:26:17.394Z,10.73
2023-03-18T10:28:44.568Z,10.85
2023-03-18T10:31:15.408Z,9.18
2023-03-18T10:33:51.980Z,8.82
2023-03-18T10:36:29.342Z,9.48
2023-03-18T10:38:56.392Z,7.95
2023-03-18T10:41:26.430Z,9.65
2023-03-18T10:43:54.271Z,7.35
2023-03-18T10:46:24.625Z,8.13
2023-03-18T10:49:25.043Z,9.40
2023-03-18T10:54:25.715Z,7.88
2023-03-18T10:56:53.302Z,10.68
2023-03-18T10:59:21.401Z,9.75
2023-03-18T11:01:49.907Z,10.88
2023-03-18T11:04:17.449Z,7.13
2023-03-18T11:06:57.798Z,11.75
2023-03-18T11:09:32.249Z,7.65
2023-03-18T11:12:03.270Z,9.27
2023-03-18T11:14:30.873Z,7.60
2023-03-18T11:16:58.014Z,9.43
2023-03-18T11:19:35.375Z,6.30
2023-03-18T11:22:04.523Z,5.00
2023-03-18T11:24:36.419Z,5.28
2023-03-18T11:27:04.281Z,6.85
2023-03-18T11:29:33.367Z,4.22
2023-03-18T11:32:01.335Z,6.90
2023-03-18T11:34:29.243Z,6.03
2023-03-18T11:37:08.220Z,5.55
2023-03-18T11:39:37.515Z,7.43
2023-03-18T11:42:06.034Z,8.63
2023-03-18T11:44:33.582Z,9.38
2023-03-18T11:47:03.956Z,5.45
2023-03-18T11:49:31.474Z,6.65
2023-03-18T11:52:17.452Z,6.80
2023-03-18T11:55:02.554Z,4.00
2023-03-18T11:57:47.942Z,5.93
2023-03-18T12:00:17.649Z,9.50
2023-03-18T12:03:03.501Z,4.38
2023-03-18T12:05:49.579Z,5.22
2023-03-18T12:08:23.442Z,4.80
2023-03-18T12:11:09.589Z,6.30
2023-03-18T12:13:45.892Z,4.47
2023-03-18T12:16:17.152Z,4.10
2023-03-18T12:18:47.682Z,4.43
2023-03-18T12:21:34.068Z,7.85
2023-03-18T12:24:20.578Z,6.40
2023-03-18T12:27:06.835Z,5.53
2023-03-18T12:29:40.722Z,5.95
2023-03-18T12:32:11.119Z,3.72
2023-03-18T12:34:49.144Z,7.13
2023-03-18T12:37:25.336Z,10.30
2023-03-18T12:40:01.224Z,5.15
2023-03-18T12:42:33.032Z,4.35
2023-03-18T12:45:01.883Z,6.05
2023-03-18T12:47:29.642Z,5.93
2023-03-18T12:50:04.213Z,6.18
2023-03-18T12:52:46.581Z,9.00
2023-03-18T12:55:23.244Z,7.18
2023-03-18T12:57:51.660Z,4.43
2023-03-18T13:00:23.750Z,6.65
2023-03-18T13:03:07.435Z,5.15
2023-03-18T13:05:42.753Z,5.32
2023-03-18T13:08:16.084Z,4.40
2023-03-18T13:10:43.157Z,7.40
2023-03-18T13:13:10.926Z,5.05
2023-03-18T13:15:49.509Z,5.65
2023-03-18T13:18:18.166Z,6.93
2023-03-18T13:20:45.197Z,6.75
2023-03-18T13:23:17.875Z,4.28
2023-03-18T13:25:57.268Z,4.80
2023-03-18T13:28:39.459Z,5.33
2023-03-18T13:31:10.650Z,5.80
2023-03-18T13:33:41.277Z,3.45
2023-03-18T13:36:17.081Z,4.38
2023-03-18T13:38:47.025Z,5.45
2023-03-18T13:41:32.773Z,7.15
2023-03-18T13:44:06.034Z,7.47
2023-03-18T13:46:33.760Z,4.82
2023-03-18T13:49:01.494Z,5.25
2023-03-18T13:51:28.640Z,5.68
2023-03-18T13:53:57.488Z,6.70
2023-03-18T13:56:28.524Z,6.28
2023-03-18T13:58:55.599Z,6.25
2023-03-18T14:01:25.436Z,6.25
2023-03-18T14:03:56.670Z,4.45
2023-03-18T14:06:24.597Z,4.13
2023-03-18T14:08:52.256Z,5.50
2023-03-18T14:11:28.708Z,5.25
2023-03-18T14:13:58.591Z,4.57
2023-03-18T14:16:28.293Z,5.70
2023-03-18T14:19:02.982Z,4.97
2023-03-18T14:21:31.033Z,4.55
2023-03-18T14:24:02.530Z,4.65
2023-03-18T14:26:29.850Z,4.85
2023-03-18T14:28:57.920Z,6.07
2023-03-18T14:31:33.085Z,4.10
2023-03-18T14:34:18.805Z,4.72
2023-03-18T14:36:46.707Z,5.72
2023-03-18T14:39:15.118Z,5.70
2023-03-18T14:41:43.123Z,7.63
2023-03-18T14:44:21.262Z,5.13
2023-03-18T14:46:51.330Z,6.05
2023-03-18T14:51:45.645Z,7.13
2023-03-18T14:54:15.284Z,5.43
2023-03-18T14:56:42.586Z,5.38
2023-03-18T14:59:13.445Z,3.17
2023-03-18T15:01:40.977Z,6.57
2023-03-18T15:04:08.434Z,7.30
2023-03-18T15:06:35.724Z,5.22
2023-03-18T15:09:04.542Z,6.35
2023-03-18T15:11:35.561Z,5.70
2023-03-18T15:14:02.572Z,5.07
2023-03-18T15:16:32.975Z,5.43
2023-03-18T15:19:00.276Z,6.28
2023-03-18T15:21:30.208Z,7.35
2023-03-18T15:23:57.994Z,6.20
2023-03-18T15:26:26.619Z,5.57
2023-03-18T15:28:54.683Z,6.35
2023-03-18T15:31:25.738Z,5.82
2023-03-18T15:33:56.459Z,5.88
2023-03-18T15:36:23.697Z,6.47
2023-03-18T15:38:51.218Z,4.75
2023-03-18T15:41:21.485Z,7.10
2023-03-18T15:46:19.437Z,4.80
2023-03-18T15:48:54.541Z,7.53
2023-03-18T15:51:27.906Z,6.15
2023-03-18T15:53:59.108Z,3.13
2023-03-18T15:56:27.348Z,4.90
2023-03-18T15:58:57.739Z,6.65
2023-03-18T16:01:24.873Z,7.90
2023-03-18T16:03:52.061Z,5.47
2023-03-18T16:06:19.336Z,5.95
2023-03-18T16:08:46.434Z,6.05
2023-03-18T16:11:14.334Z,6.00
2023-03-18T16:13:43.448Z,5.85
2023-03-18T16:16:18.594Z,4.55
2023-03-18T16:18:45.713Z,6.32
2023-03-18T16:21:15.782Z,6.82
2023-03-18T16:23:42.966Z,4.47
2023-03-18T16:26:16.377Z,7.53
2023-03-18T16:28:44.911Z,4.93
2023-03-18T16:31:13.831Z,4.55
2023-03-18T16:33:41.655Z,7.18
2023-03-18T16:36:10.949Z,6.68
2023-03-18T16:38:40.961Z,8.57
2023-03-18T16:41:09.363Z,6.20
2023-03-18T16:43:36.452Z,6.30
2023-03-18T16:46:04.177Z,6.43
2023-03-18T16:48:31.495Z,5.88
2023-03-18T16:51:01.241Z,5.78
2023-03-18T16:53:30.412Z,7.35
2023-03-18T16:56:24.219Z,4.50
2023-03-18T16:58:52.214Z,4.90
2023-03-18T17:01:19.470Z,8.23
2023-03-18T17:03:48.002Z,8.43
2023-03-18T17:06:15.182Z,8.18
2023-03-18T17:08:42.416Z,6.57
2023-03-18T17:11:10.266Z,9.13
2023-03-18T17:13:40.060Z,5.07
2023-03-18T17:16:10.161Z,7.78
2023-03-18T17:18:37.188Z,15.18
2023-03-18T17:21:05.419Z,7.97
2023-03-18T17:23:32.492Z,6.13
2023-03-18T17:25:59.921Z,11.10
2023-03-18T17:28:43.692Z,6.72
2023-03-18T17:31:11.395Z,8.40
2023-03-18T17:33:38.481Z,10.38
2023-03-18T17:36:06.056Z,7.32
2023-03-18T17:38:35.004Z,11.02
2023-03-18T17:41:03.981Z,14.48
2023-03-18T17:43:34.735Z,7.05
2023-03-18T17:46:02.894Z,9.55
2023-03-18T17:48:30.557Z,6.78
2023-03-18T17:50:58.454Z,7.75
2023-03-18T17:53:31.363Z,10.88
2023-03-18T17:55:59.012Z,9.15
2023-03-18T17:58:27.603Z,7.72
2023-03-18T18:00:55.610Z,9.45
2023-03-18T18:03:24.305Z,19.45
2023-03-18T18:05:51.378Z,11.80
2023-03-18T18:08:18.705Z,15.30
2023-03-18T18:10:45.998Z,16.52
2023-03-18T18:13:16.996Z,20.38
2023-03-18T18:15:44.697Z,27.13
2023-03-18T18:18:23.931Z,16.60
2023-03-18T18:20:55.179Z,16.25
2023-03-18T18:23:23.202Z,17.73
2023-03-18T18:25:50.528Z,16.20
2023-03-18T18:28:23.742Z,17.25
2023-03-18T18:30:50.943Z,18.55
2023-03-18T18:33:18.035Z,16.85
2023-03-18T18:35:45.109Z,23.85
2023-03-18T18:38:13.230Z,20.95
2023-03-18T18:40:40.298Z,14.45
2023-03-18T18:43:08.297Z,11.48
2023-03-18T18:45:36.223Z,99.85
2023-03-18T18:48:03.776Z,58.92
2023-03-18T18:50:35.442Z,27.83
2023-03-18T18:53:02.684Z,81.28
2023-03-18T18:55:29.798Z,69.55
2023-03-18T18:57:57.035Z,36.20
2023-03-18T19:00:24.228Z,32.15
2023-03-18T19:02:53.202Z,25.60
2023-03-18T19:05:20.333Z,22.27
2023-03-18T19:07:47.346Z,33.22
2023-03-18T19:10:15.282Z,32.00
2023-03-18T19:12:44.139Z,26.67
2023-03-18T19:15:14.866Z,26.48
2023-03-18T19:17:43.349Z,28.30
2023-03-18T19:20:30.725Z,39.35
2023-03-18T19:22:57.868Z,35.67
2023-03-18T19:25:25.699Z,19.48
2023-03-18T19:27:53.643Z,23.20
2023-03-18T19:30:21.976Z,22.00
2023-03-18T19:32:49.446Z,27.08
2023-03-18T19:35:16.888Z,26.73
2023-03-18T19:37:44.817Z,26.83
2023-03-18T19:40:29.436Z,28.40
2023-03-18T19:42:56.989Z,28.08
2023-03-18T19:45:24.452Z,32.63
2023-03-18T19:47:51.639Z,33.53
2023-03-18T19:50:19.539Z,23.08
2023-03-18T19:52:46.969Z,27.75
2023-03-18T19:55:15.286Z,25.52
2023-03-18T19:57:44.703Z,23.50
2023-03-18T20:00:19.744Z,29.48
2023-03-18T20:02:49.079Z,25.95
2023-03-18T20:05:17.080Z,25.73
2023-03-18T20:07:44.193Z,24.27
2023-03-18T20:10:11.889Z,22.20
2023-03-18T20:12:39.597Z,27.58
2023-03-18T20:15:07.801Z,32.08
2023-03-18T20:17:38.736Z,26.02
2023-03-18T20:20:12.540Z,25.67
2023-03-18T20:22:40.143Z,28.80
2023-03-18T20:25:08.323Z,24.63
2023-03-18T20:27:35.590Z,25.50
2023-03-18T20:30:03.248Z,15.95
2023-03-18T20:32:30.575Z,16.02
2023-03-18T20:34:57.763Z,13.20
2023-03-18T20:37:33.548Z,13.07
2023-03-18T20:40:01.013Z,18.80
2023-03-18T20:42:28.282Z,14.35
2023-03-18T20:44:55.345Z,14.68
2023-03-18T20:47:22.394Z,19.85
2023-03-18T20:49:49.489Z,14.38
2023-03-18T20:52:29.520Z,12.40
2023-03-18T20:54:57.009Z,14.35
2023-03-18T20:57:24.398Z,9.02
2023-03-18T20:59:51.570Z,8.73
2023-03-18T21:02:31.673Z,9.52
2023-03-18T21:04:59.219Z,10.77
2023-03-18T21:07:26.744Z,11.13
2023-03-18T21:09:53.858Z,13.73
2023-03-18T21:12:21.492Z,23.10
2023-03-18T21:14:48.942Z,11.90
2023-03-18T21:17:25.886Z,13.20
2023-03-18T21:19:53.772Z,13.73
2023-03-18T21:22:28.042Z,13.18
2023-03-18T21:24:55.145Z,10.15
2023-03-18T21:27:22.866Z,15.35
2023-03-18T21:29:50.947Z,15.15
2023-03-18T21:32:28.178Z,10.55
2023-03-18T21:34:55.302Z,8.55
2023-03-18T21:37:23.224Z,10.13
2023-03-18T21:39:50.810Z,7.78
2023-03-18T21:42:24.285Z,8.57
2023-03-18T21:44:51.579Z,9.77
2023-03-18T21:47:19.313Z,6.53
2023-03-18T21:49:46.826Z,4.47
2023-03-18T21:52:17.550Z,9.10
2023-03-18T21:54:44.613Z,13.45
2023-03-18T21:57:18.022Z,13.07
2023-03-18T21:59:45.942Z,7.97
2023-03-18T22:02:22.444Z,9.23
2023-03-18T22:04:49.514Z,10.90
2023-03-18T22:07:16.926Z,8.05
2023-03-18T22:09:44.684Z,6.80
2023-03-18T22:12:15.299Z,9.48
2023-03-18T22:17:23.297Z,6.30
2023-03-18T22:19:50.652Z,6.70
2023-03-18T22:22:18.297Z,7.28
2023-03-18T22:24:45.647Z,6.70
2023-03-18T22:27:28.688Z,8.70
2023-03-18T22:29:56.440Z,10.10
2023-03-18T22:32:26.605Z,6.45
2023-03-18T22:34:54.062Z,8.52
2023-03-18T22:37:21.628Z,6.50
2023-03-18T22:39:48.898Z,6.90
2023-03-18T22:42:20.238Z,6.72
2023-03-18T22:44:47.352Z,7.18
2023-03-18T22:47:15.354Z,9.40
2023-03-18T22:49:42.612Z,13.00
2023-03-18T22:52:28.996Z,10.00
2023-03-18T22:55:00.447Z,10.63
2023-03-18T22:57:27.882Z,8.68
2023-03-18T22:59:55.401Z,13.40
2023-03-18T23:02:23.435Z,11.60
2023-03-18T23:04:50.797Z,7.43
2023-03-18T23:07:32.052Z,11.15
2023-03-18T23:10:04.562Z,15.25
2023-03-18T23:12:32.546Z,13.07
2023-03-18T23:14:59.697Z,9.43
2023-03-18T23:17:27.232Z,10.05
2023-03-18T23:19:54.415Z,10.63
2023-03-18T23:22:26.061Z,13.10
2023-03-18T23:24:53.150Z,9.63
2023-03-18T23:27:21.037Z,8.75
2023-03-18T23:29:48.094Z,15.65
2023-03-18T23:32:15.264Z,20.45
2023-03-18T23:34:42.349Z,13.25
2023-03-18T23:37:09.652Z,14.80
2023-03-18T23:39:42.643Z,15.05
2023-03-18T23:42:19.225Z,13.05
2023-03-18T23:44:46.620Z,15.07
2023-03-18T23:47:14.241Z,19.08
2023-03-18T23:49:41.307Z,18.17
2023-03-18T23:52:09.498Z,16.17
2023-03-18T23:54:36.640Z,16.05
2023-03-18T23:57:03.876Z,13.93
2023-03-18T23:59:31.074Z,12.77
